Time;durP1;ratioP1;P1;durP2;ratioP2;P2;SDS_P1;SDS_P2;PMS_P1;PMS_P2;Temp;Humidity;BMP_temperature;BMP_pressure;BME280_temperature;BME280_humidity;BME280_pressure;Samples;Min_cycle;Max_cycle;Signal;HPM_P1;HPM_P2
2021/12/12 00:01:45;;;;;;;;;26.50;21.00;;;;;7.93;93.20;101430.19;5058345;28;45330;-67
2021/12/12 00:04:17;;;;;;;;;28.25;26.00;;;;;7.92;93.40;101424.09;5056153;28;45178;-67
2021/12/12 00:06:55;;;;;;;;;30.75;25.25;;;;;7.65;93.64;101373.00;5059142;28;45318;-68
2021/12/12 00:09:31;;;;;;;;;30.50;25.75;;;;;7.93;94.27;101423.22;5059913;28;45328;-67
2021/12/12 00:11:59;;;;;;;;;30.25;29.50;;;;;7.93;94.41;101422.31;5057609;28;45316;-67
2021/12/12 00:14:31;;;;;;;;;33.50;27.50;;;;;7.90;94.44;101415.41;5058329;28;45377;-68
2021/12/12 00:16:57;;;;;;;;;28.00;23.50;;;;;7.88;94.78;101409.31;5058257;28;45583;-66
2021/12/12 00:19:24;;;;;;;;;31.25;27.00;;;;;7.86;95.11;101411.09;5056014;28;46606;-67
2021/12/12 00:21:53;;;;;;;;;28.75;23.75;;;;;7.85;95.76;101404.13;5057896;28;45316;-67
2021/12/12 00:24:19;;;;;;;;;31.75;28.00;;;;;7.81;95.78;101403.28;5057527;28;45415;-65
2021/12/12 00:26:48;;;;;;;;;27.25;21.25;;;;;7.78;96.16;101405.13;5058220;28;45352;-67
2021/12/12 00:29:14;;;;;;;;;28.75;23.00;;;;;7.73;97.13;101403.44;5060345;28;45375;-68
2021/12/12 00:31:41;;;;;;;;;27.75;24.25;;;;;7.73;97.17;101403.44;5056606;28;46235;-67
2021/12/12 00:34:07;;;;;;;;;30.25;25.50;;;;;7.73;97.68;101408.66;5057367;28;45434;-66
2021/12/12 00:36:34;;;;;;;;;31.25;26.25;;;;;7.70;97.83;101408.72;5057483;28;45402;-66
2021/12/12 00:39:07;;;;;;;;;36.00;30.00;;;;;7.60;98.04;101389.63;5056411;28;45522;-66
2021/12/12 00:41:40;;;;;;;;;32.75;29.25;;;;;7.66;98.37;101401.78;5057200;28;45362;-66
2021/12/12 00:44:06;;;;;;;;;33.75;29.25;;;;;7.61;98.50;101401.00;5057115;28;45344;-66
2021/12/12 00:46:32;;;;;;;;;29.25;27.00;;;;;7.64;99.43;101397.44;5055546;28;45340;-67
2021/12/12 00:48:57;;;;;;;;;31.00;23.75;;;;;7.63;99.10;101408.81;5057434;28;45382;-70
2021/12/12 00:51:36;;;;;;;;;24.50;21.50;;;;;7.57;99.25;101404.53;5060073;28;45465;-63
2021/12/12 00:54:02;;;;;;;;;24.75;22.75;;;;;7.54;98.88;101407.22;5056946;28;45579;-69
2021/12/12 00:56:28;;;;;;;;;30.25;23.00;;;;;7.50;99.18;101403.75;5058519;27;45538;-66
2021/12/12 00:58:53;;;;;;;;;29.00;25.50;;;;;7.47;99.76;101389.88;5056584;28;46161;-66
2021/12/12 01:01:24;;;;;;;;;24.50;24.25;;;;;7.47;100.00;101401.19;5055495;28;45328;-66
2021/12/12 01:04:02;;;;;;;;;30.00;24.25;;;;;7.40;100.00;101397.78;5055850;28;45375;-68
2021/12/12 01:06:28;;;;;;;;;30.25;24.50;;;;;7.36;100.00;101388.22;5056787;28;45330;-69
2021/12/12 01:08:57;;;;;;;;;25.00;21.75;;;;;7.35;100.00;101396.97;5057923;28;46221;-67
2021/12/12 01:11:28;;;;;;;;;27.75;21.25;;;;;7.33;100.00;101396.13;5060360;28;45453;-67
2021/12/12 01:13:55;;;;;;;;;30.75;26.25;;;;;7.30;100.00;101390.94;5059118;28;45282;-68
2021/12/12 01:16:36;;;;;;;;;29.00;24.25;;;;;7.29;100.00;101391.81;5058861;28;45560;-67
2021/12/12 01:19:12;;;;;;;;;21.75;17.25;;;;;7.28;100.00;101390.97;5055734;28;47145;-69
2021/12/12 01:21:44;;;;;;;;;24.00;21.00;;;;;7.24;100.00;101393.63;5057213;28;45271;-71
2021/12/12 01:24:15;;;;;;;;;23.00;20.50;;;;;7.21;100.00;101385.81;5057666;28;45445;-71
2021/12/12 01:26:44;;;;;;;;;29.75;23.25;;;;;7.24;100.00;101394.50;5089402;27;45432;-69
2021/12/12 01:29:09;;;;;;;;;26.75;22.50;;;;;7.29;100.00;101394.44;5092319;27;46380;-69
2021/12/12 01:31:39;;;;;;;;;24.50;19.25;;;;;7.30;100.00;101402.28;5073793;27;45434;-69
2021/12/12 01:34:12;;;;;;;;;26.75;22.25;;;;;7.32;100.00;101399.63;5057332;28;45352;-70
2021/12/12 01:37:10;;;;;;;;;28.00;24.00;;;;;7.33;100.00;101403.13;5057226;28;45598;-69
2021/12/12 01:39:45;;;;;;;;;55.00;43.00;;;;;7.28;100.00;101395.31;5056814;28;46530;-69
2021/12/12 01:42:24;;;;;;;;;21.50;16.50;;;;;7.34;100.00;101404.84;5056673;28;45554;-70
2021/12/12 01:45:01;;;;;;;;;4.25;1.00;;;;;7.33;100.00;101409.22;5056619;28;45592;-69
2021/12/12 01:47:39;;;;;;;;;23.50;18.50;;;;;7.32;100.00;101412.72;5057607;28;45391;-67
2021/12/12 01:50:10;;;;;;;;;18.50;16.25;;;;;7.33;100.00;101411.81;5056408;28;46101;-70
2021/12/12 01:52:38;;;;;;;;;19.00;15.75;;;;;7.35;100.00;101412.66;5055876;28;45349;-70
2021/12/12 01:55:21;;;;;;;;;18.50;18.00;;;;;7.36;100.00;101410.94;5056144;28;45421;-71
2021/12/12 01:57:47;;;;;;;;;16.25;16.00;;;;;7.37;100.00;101412.66;5056729;28;45519;-70
2021/12/12 02:00:22;;;;;;;;;17.75;17.75;;;;;7.37;100.00;101417.91;5056083;28;46481;-70
2021/12/12 02:02:48;;;;;;;;;22.25;18.75;;;;;7.37;100.00;101410.91;5058124;28;45209;-69
2021/12/12 02:05:17;;;;;;;;;21.00;17.75;;;;;7.37;100.00;101423.13;5056730;28;45423;-70
2021/12/12 02:07:50;;;;;;;;;22.00;19.00;;;;;7.38;100.00;101428.34;5056737;28;45414;-70
2021/12/12 02:10:24;;;;;;;;;14.00;13.50;;;;;7.40;100.00;101425.72;5055771;28;46136;-69
2021/12/12 02:12:50;;;;;;;;;14.50;14.50;;;;;7.43;100.00;101436.16;5055708;28;45381;-68
2021/12/12 02:15:17;;;;;;;;;19.00;18.25;;;;;7.44;100.00;101432.63;5064519;27;45502;-69
2021/12/12 02:17:47;;;;;;;;;14.50;12.00;;;;;7.45;100.00;101434.38;5077547;27;45668;-68
2021/12/12 02:20:33;;;;;;;;;17.00;15.25;;;;;7.48;100.00;101439.56;5077695;27;46452;-70
2021/12/12 02:36:32;;;;;;;;;21.50;18.25;;;;;7.62;100.00;101446.34;5054039;28;45463;-70
2021/12/12 02:38:57;;;;;;;;;14.75;13.50;;;;;7.65;100.00;101444.59;5071840;28;45930;-69
2021/12/12 02:41:25;;;;;;;;;8.25;7.00;;;;;7.66;100.00;101448.03;5077985;27;46144;-70
2021/12/12 02:43:58;;;;;;;;;14.75;12.50;;;;;7.67;100.00;101449.78;5077932;27;45474;-67
2021/12/12 02:46:28;;;;;;;;;16.50;14.25;;;;;7.68;100.00;101444.53;5058484;28;45389;-70
2021/12/12 02:49:04;;;;;;;;;14.25;13.00;;;;;7.71;100.00;101444.50;5060375;28;45460;-69
2021/12/12 02:51:30;;;;;;;;;17.75;16.50;;;;;7.72;100.00;101447.97;5057981;28;46452;-68
2021/12/12 02:53:58;;;;;;;;;14.25;13.00;;;;;7.73;100.00;101453.19;5058033;28;45560;-68
2021/12/12 02:56:45;;;;;;;;;15.00;12.00;;;;;7.74;100.00;101457.53;5058788;28;45189;-68
2021/12/12 02:59:15;;;;;;;;;15.25;14.75;;;;;7.72;100.00;101454.06;5059012;28;45613;-70
2021/12/12 03:02:06;;;;;;;;;20.50;18.00;;;;;7.73;100.00;101458.44;5074277;28;47478;-70
2021/12/12 03:04:32;;;;;;;;;15.50;13.50;;;;;7.77;100.00;101463.63;5066648;27;45522;-68
2021/12/12 03:06:58;;;;;;;;;16.50;11.75;;;;;7.77;100.00;101456.63;5078926;27;45440;-69
2021/12/12 03:09:36;;;;;;;;;14.25;13.75;;;;;7.79;100.00;101465.31;5078374;27;45416;-69
2021/12/12 03:12:08;;;;;;;;;14.50;12.50;;;;;7.81;100.00;101460.91;5071803;27;46345;-69
2021/12/12 03:14:35;;;;;;;;;13.25;13.00;;;;;7.84;100.00;101458.25;5057524;28;45446;-69
2021/12/12 03:17:06;;;;;;;;;19.25;14.50;;;;;7.84;100.00;101452.16;5058273;28;45467;-69
2021/12/12 03:19:32;;;;;;;;;17.00;14.75;;;;;7.84;100.00;101458.25;5058047;28;45311;-68
2021/12/12 03:21:58;;;;;;;;;11.50;11.50;;;;;7.87;100.00;101465.22;5058465;28;45964;-70
2021/12/12 03:24:26;;;;;;;;;13.50;11.75;;;;;7.85;100.00;101462.59;5058480;28;45466;-70
2021/12/12 03:26:57;;;;;;;;;15.75;14.00;;;;;7.87;100.00;101465.22;5058990;28;45413;-70
2021/12/12 03:29:24;;;;;;;;;16.75;13.00;;;;;7.87;100.00;101458.22;5067189;28;45428;-70
2021/12/12 03:31:57;;;;;;;;;9.00;9.00;;;;;7.88;100.00;101459.09;5079043;28;46085;-70
2021/12/12 03:34:25;;;;;;;;;13.50;11.75;;;;;7.89;100.00;101463.44;5080137;27;45480;-70
2021/12/12 03:36:51;;;;;;;;;14.75;13.00;;;;;7.88;100.00;101461.72;5080917;27;45471;-70
2021/12/12 03:39:20;;;;;;;;;13.25;12.50;;;;;7.88;100.00;101453.84;5078908;28;45339;-70
2021/12/12 03:41:46;;;;;;;;;15.50;11.00;;;;;7.89;100.00;101456.44;5078222;27;46222;-70
2021/12/12 03:44:17;;;;;;;;;16.75;11.00;;;;;7.89;100.00;101460.81;5073646;28;45532;-70
2021/12/12 03:46:47;;;;;;;;;13.50;12.25;;;;;7.92;100.00;101455.53;5071050;28;45409;-68
2021/12/12 03:49:13;;;;;;;;;10.75;9.50;;;;;7.92;100.00;101458.16;5078677;27;45436;-69
2021/12/12 03:51:41;;;;;;;;;11.00;11.00;;;;;7.94;100.00;101458.13;5081050;28;46102;-71
2021/12/12 03:54:06;;;;;;;;;13.25;12.25;;;;;7.93;100.00;101457.28;5088697;28;45414;-68
2021/12/12 03:56:32;;;;;;;;;14.25;12.75;;;;;7.96;100.00;101456.38;5085426;27;45389;-70
2021/12/12 03:58:58;;;;;;;;;13.50;13.25;;;;;7.99;100.00;101467.66;5078676;27;45365;-68
2021/12/12 04:01:29;;;;;;;;;14.25;12.50;;;;;8.00;100.00;101463.28;5077718;27;46122;-70
2021/12/12 04:04:00;;;;;;;;;13.25;13.25;;;;;7.99;100.00;101466.81;5076419;27;45393;-69
2021/12/12 04:06:29;;;;;;;;;12.25;11.75;;;;;8.00;100.00;101464.13;5077508;27;45367;-69
2021/12/12 04:08:56;;;;;;;;;12.00;10.75;;;;;8.00;100.00;101460.69;5077600;27;45334;-69
2021/12/12 04:11:34;;;;;;;;;12.25;11.50;;;;;7.99;100.00;101451.94;5078326;27;46402;-70
2021/12/12 04:14:03;;;;;;;;;12.00;9.25;;;;;8.04;100.00;101464.97;5079263;27;45419;-70
2021/12/12 04:16:30;;;;;;;;;14.75;12.75;;;;;8.03;100.00;101466.72;5078695;27;45311;-70
2021/12/12 04:18:57;;;;;;;;;11.00;10.50;;;;;8.03;100.00;101471.97;5079640;27;45397;-70
2021/12/12 04:21:24;;;;;;;;;11.50;11.00;;;;;8.04;100.00;101464.97;5078227;28;45449;-70
2021/12/12 04:23:49;;;;;;;;;13.25;11.00;;;;;8.03;100.00;101466.72;5077946;27;45402;-70
2021/12/12 04:26:20;;;;;;;;;16.25;12.00;;;;;8.10;100.00;101474.47;5078112;27;45454;-70
2021/12/12 04:29:03;;;;;;;;;15.75;13.25;;;;;8.12;100.00;101480.56;5078236;28;45303;-71
2021/12/12 04:31:29;;;;;;;;;14.50;12.00;;;;;8.06;100.00;101473.69;5077294;27;47209;-71
2021/12/12 04:33:56;;;;;;;;;13.25;13.25;;;;;8.15;100.00;101483.13;5077381;28;45427;-71
2021/12/12 04:36:33;;;;;;;;;13.25;13.00;;;;;8.18;100.00;101486.59;5076575;27;45282;-71
2021/12/12 04:39:13;;;;;;;;;12.00;11.00;;;;;8.19;100.00;101490.94;5058497;28;45444;-71
2021/12/12 04:41:40;;;;;;;;;18.75;14.75;;;;;8.19;100.00;101484.81;5056410;28;47113;-71
2021/12/12 04:44:07;;;;;;;;;22.50;19.00;;;;;8.20;100.00;101476.06;5059851;28;45448;-71
2021/12/12 04:49:56;;;;;;;;;15.00;14.25;;;;;8.26;100.00;101480.34;5077102;28;45404;-68
2021/12/12 04:53:00;;;;;;;;;15.50;15.50;;;;;8.31;100.00;101487.25;5076621;27;46143;-69
2021/12/12 04:55:47;;;;;;;;;17.75;14.25;;;;;8.29;100.00;101477.69;5058671;28;45422;-68
2021/12/12 04:58:20;;;;;;;;;19.75;16.00;;;;;8.30;100.00;101492.53;5056589;27;45331;-69
2021/12/12 05:01:02;;;;;;;;;20.00;17.00;;;;;8.36;100.00;101496.78;5055190;28;45387;-69
2021/12/12 05:03:51;;;;;;;;;15.25;11.75;;;;;8.36;100.00;101496.78;5056095;28;45395;-71
2021/12/12 05:06:36;;;;;;;;;15.25;13.25;;;;;8.34;100.00;101500.31;5056742;28;45300;-69
2021/12/12 05:09:17;;;;;;;;;13.50;13.50;;;;;8.37;100.00;101507.25;5056148;28;45382;-68
2021/12/12 05:11:56;;;;;;;;;16.75;14.50;;;;;8.37;100.00;101511.63;5056375;28;45412;-68
2021/12/12 05:14:26;;;;;;;;;16.75;14.75;;;;;8.30;100.00;101489.91;5055338;28;45402;-69
2021/12/12 05:17:11;;;;;;;;;14.25;12.50;;;;;8.36;100.00;101510.78;5055673;28;45456;-71
2021/12/12 05:19:41;;;;;;;;;17.75;17.00;;;;;8.36;100.00;101508.16;5056565;28;45423;-68
2021/12/12 05:22:14;;;;;;;;;15.25;15.25;;;;;8.23;100.00;101488.28;5056731;28;45247;-70
2021/12/12 05:24:42;;;;;;;;;18.25;17.00;;;;;8.40;100.00;101508.94;5062798;27;46306;-71
2021/12/12 05:27:15;;;;;;;;;18.75;16.75;;;;;8.41;100.00;101508.06;5079660;27;45454;-70
2021/12/12 05:30:10;;;;;;;;;20.50;19.00;;;;;8.46;100.00;101511.47;5076823;28;45493;-71
2021/12/12 05:32:36;;;;;;;;;16.25;16.25;;;;;8.48;100.00;101510.56;5077785;27;45522;-71
2021/12/12 05:35:06;;;;;;;;;15.75;14.50;;;;;8.53;100.00;101514.91;5076611;28;45216;-70
2021/12/12 05:37:32;;;;;;;;;17.75;15.50;;;;;8.53;100.00;101523.66;5076456;27;45429;-70
2021/12/12 05:40:05;;;;;;;;;21.50;17.00;;;;;8.54;100.00;101524.50;5076654;28;45437;-69
2021/12/12 05:42:31;;;;;;;;;14.75;14.75;;;;;8.54;100.00;101524.50;5076993;28;45486;-70
2021/12/12 05:44:59;;;;;;;;;9.00;6.50;;;;;8.55;100.00;101521.88;5066865;28;46191;-71
2021/12/12 05:47:25;;;;;;;;;25.50;17.25;;;;;8.53;100.00;101521.03;5055672;28;45584;-70
2021/12/12 05:49:51;;;;;;;;;17.50;15.25;;;;;8.59;100.00;101526.19;5056743;28;45512;-71
2021/12/12 05:52:19;;;;;;;;;18.50;17.50;;;;;8.59;100.00;101525.28;5058341;28;45372;-69
2021/12/12 05:54:47;;;;;;;;;15.75;15.75;;;;;8.66;100.00;101524.28;5056100;28;45653;-69
2021/12/12 05:57:17;;;;;;;;;23.25;19.25;;;;;8.66;100.00;101526.91;5071032;28;45412;-70
2021/12/12 05:59:42;;;;;;;;;20.00;16.50;;;;;8.67;100.00;101533.03;5061138;28;45766;-70
2021/12/12 06:02:08;;;;;;;;;19.25;18.50;;;;;8.66;100.00;101532.16;5062467;28;45602;-67
2021/12/12 06:04:35;;;;;;;;;23.00;17.50;;;;;8.69;100.00;101541.75;5056329;28;45481;-69
2021/12/12 06:07:04;;;;;;;;;22.50;18.75;;;;;8.70;100.00;101540.88;5056307;27;45285;-72
2021/12/12 06:09:32;;;;;;;;;20.00;15.75;;;;;8.71;100.00;101540.81;5056963;28;45343;-70
2021/12/12 06:11:59;;;;;;;;;23.50;21.25;;;;;8.73;100.00;101540.81;5056660;28;45247;-71
2021/12/12 06:14:25;;;;;;;;;24.00;19.50;;;;;8.74;100.00;101534.66;5059514;28;45537;-69
2021/12/12 06:16:52;;;;;;;;;17.00;15.25;;;;;8.73;100.00;101536.41;5060015;28;45390;-69
2021/12/12 06:19:21;;;;;;;;;19.00;19.00;;;;;8.74;100.00;101546.00;5060058;28;45481;-71
2021/12/12 06:21:52;;;;;;;;;17.25;16.00;;;;;8.73;100.00;101554.78;5059678;28;45437;-71
2021/12/12 06:24:19;;;;;;;;;18.50;17.00;;;;;8.71;100.00;101560.97;5055969;28;45698;-69
2021/12/12 06:26:45;;;;;;;;;25.75;21.00;;;;;8.72;100.00;101562.69;5074237;27;45521;-69
2021/12/12 06:29:11;;;;;;;;;24.50;20.00;;;;;8.70;100.00;101560.06;5058530;28;45417;-70
2021/12/12 06:31:40;;;;;;;;;19.00;17.50;;;;;8.73;100.00;101559.19;5059494;28;45441;-69
2021/12/12 06:34:06;;;;;;;;;23.75;20.25;;;;;8.73;100.00;101560.03;5074496;27;47982;-69
2021/12/12 06:36:32;;;;;;;;;18.00;16.50;;;;;8.75;100.00;101560.00;5059387;28;45681;-71
2021/12/12 06:38:58;;;;;;;;;25.50;19.50;;;;;8.79;100.00;101564.31;5061877;28;45369;-70
2021/12/12 06:41:23;;;;;;;;;19.00;16.25;;;;;8.79;100.00;101561.69;5058277;28;45396;-72
2021/12/12 06:43:50;;;;;;;;;19.00;17.50;;;;;8.81;100.00;101570.41;5057065;28;46401;-69
2021/12/12 06:46:18;;;;;;;;;19.25;15.25;;;;;8.75;100.00;101573.13;5057646;28;45314;-70
2021/12/12 06:48:44;;;;;;;;;24.25;18.50;;;;;8.60;100.00;101548.88;5057895;28;45844;-70
2021/12/12 06:51:12;;;;;;;;;17.00;14.50;;;;;8.79;100.00;101579.19;5058252;28;45427;-70
2021/12/12 06:53:42;;;;;;;;;16.00;14.25;;;;;8.78;100.00;101573.06;5060610;28;46304;-71
2021/12/12 06:56:11;;;;;;;;;13.50;13.00;;;;;8.77;100.00;101581.84;5062653;28;45173;-72
2021/12/12 06:58:37;;;;;;;;;0.00;0.00;;;;;8.78;100.00;101586.19;5059035;28;45725;-71
2021/12/12 07:01:11;;;;;;;;;15.00;11.25;;;;;8.82;100.00;101581.75;5057996;28;45568;-70
2021/12/12 07:03:37;;;;;;;;;23.00;16.25;;;;;8.80;100.00;101587.03;5057541;28;46321;-70
2021/12/12 07:06:05;;;;;;;;;18.50;13.75;;;;;8.83;100.00;101599.22;5073178;27;45359;-70
2021/12/12 07:08:30;;;;;;;;;16.75;15.50;;;;;8.86;100.00;101601.78;5077314;28;45372;-72
2021/12/12 07:10:56;;;;;;;;;16.75;14.75;;;;;8.89;100.00;101607.00;5076523;27;46086;-68
2021/12/12 07:13:25;;;;;;;;;14.25;14.00;;;;;8.89;100.00;101609.63;5077281;27;46516;-70
2021/12/12 07:15:55;;;;;;;;;15.75;14.25;;;;;8.92;100.00;101612.19;5077244;27;45345;-70
2021/12/12 07:18:24;;;;;;;;;11.00;11.00;;;;;8.93;100.00;101608.66;5076845;28;45448;-69
2021/12/12 07:20:54;;;;;;;;;14.25;14.00;;;;;8.97;100.00;101610.34;5077098;27;45209;-68
2021/12/12 07:23:20;;;;;;;;;16.25;15.25;;;;;8.98;100.00;101613.84;5076127;27;46703;-67
2021/12/12 07:25:46;;;;;;;;;16.50;11.75;;;;;8.99;100.00;101610.34;5079330;28;45449;-69
2021/12/12 07:28:13;;;;;;;;;13.75;13.25;;;;;8.97;100.00;101615.59;5076542;27;45432;-69
2021/12/12 07:30:39;;;;;;;;;13.00;9.00;;;;;8.99;100.00;101616.44;5077242;27;45335;-70
2021/12/12 07:33:06;;;;;;;;;14.25;13.25;;;;;9.00;100.00;101610.28;5075761;27;45961;-70
2021/12/12 07:35:34;;;;;;;;;12.75;11.75;;;;;9.04;100.00;101621.63;5076598;28;45395;-70
2021/12/12 07:38:01;;;;;;;;;13.25;12.25;;;;;9.04;100.00;101619.88;5076563;27;45913;-70
2021/12/12 07:40:27;;;;;;;;;16.75;13.00;;;;;9.04;100.00;101616.38;5077384;27;45329;-70
2021/12/12 07:42:53;;;;;;;;;12.50;12.00;;;;;9.06;100.00;101614.59;5076461;28;45273;-71
2021/12/12 07:45:23;;;;;;;;;16.75;13.00;;;;;9.07;100.00;101624.19;5062874;27;45704;-71
2021/12/12 07:47:50;;;;;;;;;14.50;12.75;;;;;9.06;100.00;101625.09;5056568;28;45461;-69
2021/12/12 07:50:18;;;;;;;;;17.00;14.00;;;;;9.08;100.00;101633.81;5056454;28;45441;-69
2021/12/12 07:52:46;;;;;;;;;12.50;11.25;;;;;8.97;100.00;101609.50;5055938;28;46451;-70
2021/12/12 07:55:12;;;;;;;;;12.50;11.00;;;;;9.07;100.00;101632.06;5055759;28;45618;-69
2021/12/12 07:57:38;;;;;;;;;11.50;10.00;;;;;9.06;100.00;101618.09;5056176;28;45521;-69
2021/12/12 08:00:10;;;;;;;;;13.25;11.00;;;;;9.11;100.00;101628.50;5072202;28;45494;-71
2021/12/12 08:02:37;;;;;;;;;12.50;12.00;;;;;9.13;100.00;101642.47;5074743;28;45980;-68
2021/12/12 08:05:03;;;;;;;;;12.50;12.50;;;;;9.12;100.00;101639.88;5079188;28;45396;-71
2021/12/12 08:07:30;;;;;;;;;8.00;6.25;;;;;9.16;100.00;101633.69;5077541;27;45268;-72
2021/12/12 08:09:55;;;;;;;;;10.25;9.75;;;;;9.15;100.00;101624.06;5078566;28;45452;-70
2021/12/12 08:12:26;;;;;;;;;12.50;12.50;;;;;9.20;100.00;101633.59;5077915;27;45390;-71
2021/12/12 08:14:52;;;;;;;;;11.50;10.00;;;;;9.23;100.00;101639.69;5076510;27;45372;-70
2021/12/12 08:17:20;;;;;;;;;13.00;11.75;;;;;9.27;100.00;101643.97;5078327;27;45313;-69
2021/12/12 08:19:48;;;;;;;;;14.50;12.00;;;;;9.29;100.00;101647.44;5086963;27;45557;-71
2021/12/12 08:22:14;;;;;;;;;14.00;12.50;;;;;9.32;100.00;101647.38;5094795;27;45899;-70
2021/12/12 08:24:40;;;;;;;;;15.75;11.25;;;;;9.34;100.00;101654.34;5080709;27;45331;-71
2021/12/12 08:27:08;;;;;;;;;12.25;12.00;;;;;9.39;100.00;101650.78;5082125;27;45415;-72
2021/12/12 08:29:35;;;;;;;;;12.25;11.00;;;;;9.42;100.00;101646.31;5077409;27;45361;-71
2021/12/12 08:32:04;;;;;;;;;12.25;12.25;;;;;9.46;100.00;101647.16;5075731;27;46930;-71
2021/12/12 08:34:30;;;;;;;;;15.75;13.50;;;;;9.52;100.00;101648.78;5074014;27;45483;-70
2021/12/12 08:36:58;;;;;;;;;16.00;13.00;;;;;9.55;100.00;101654.84;5055509;28;45439;-70
2021/12/12 08:39:26;;;;;;;;;14.75;11.50;;;;;9.58;100.00;101660.06;5055585;28;45612;-71
2021/12/12 08:41:55;;;;;;;;;9.00;9.00;;;;;9.62;100.00;101664.34;5055443;28;46237;-70
2021/12/12 08:44:22;;;;;;;;;15.25;12.25;;;;;9.65;100.00;101666.06;5055382;28;45420;-69
2021/12/12 08:46:50;;;;;;;;;16.00;13.25;;;;;9.67;100.00;101672.16;5055471;28;45468;-70
2021/12/12 08:49:19;;;;;;;;;15.75;13.50;;;;;9.70;100.00;101672.09;5055655;28;45411;-70
2021/12/12 08:51:56;;;;;;;;;14.75;11.75;;;;;9.75;100.00;101664.13;5058368;27;46892;-70
2021/12/12 08:54:26;;;;;;;;;17.75;12.00;;;;;9.77;100.00;101659.69;5075336;28;45930;-69
2021/12/12 08:57:04;;;;;;;;;14.00;11.75;;;;;9.84;100.00;101674.44;5077991;27;45467;-70
2021/12/12 08:59:31;;;;;;;;;13.25;12.25;;;;;9.86;100.00;101670.03;5076063;27;45493;-71
2021/12/12 09:02:01;;;;;;;;;16.25;14.75;;;;;9.90;100.00;101670.84;5075078;28;46145;-71
2021/12/12 09:04:30;;;;;;;;;12.50;12.50;;;;;9.97;100.00;101672.44;5074894;28;45429;-72
2021/12/12 09:07:23;;;;;;;;;14.00;13.00;;;;;10.00;100.00;101677.66;5075121;27;45515;-71
2021/12/12 09:10:02;;;;;;;;;14.25;11.75;;;;;10.06;100.00;101688.03;5074508;28;45377;-69
2021/12/12 09:12:39;;;;;;;;;14.25;12.25;;;;;10.09;100.00;101682.72;5074884;28;47596;-70
2021/12/12 09:15:15;;;;;;;;;12.50;12.00;;;;;10.14;100.00;101690.53;5075332;28;45464;-70
2021/12/12 09:18:27;;;;;;;;;14.75;14.00;;;;;10.19;100.00;101688.66;5075251;28;45387;-71
2021/12/12 09:21:13;;;;;;;;;14.25;12.50;;;;;10.23;100.00;101692.97;5073774;28;45405;-70
2021/12/12 09:23:50;;;;;;;;;11.75;10.25;;;;;10.27;100.00;101687.63;5074136;28;46965;-69
2021/12/12 09:26:21;;;;;;;;;22.75;19.00;;;;;10.29;100.00;101681.44;5066777;27;45444;-69
2021/12/12 09:29:26;;;;;;;;;16.00;13.50;;;;;10.40;100.00;101691.75;5054625;28;45504;-72
2021/12/12 09:32:02;;;;;;;;;16.00;13.00;;;;;10.45;100.00;101689.03;5055002;28;45551;-73
2021/12/12 09:34:27;;;;;;;;;17.00;14.25;;;;;10.50;100.00;101692.41;5053426;28;46195;-69
2021/12/12 09:37:09;;;;;;;;;13.50;13.00;;;;;10.48;100.00;101678.44;5054061;28;45398;-70
2021/12/12 09:39:52;;;;;;;;;18.75;15.00;;;;;10.61;100.00;101694.81;5054463;28;45393;-68
2021/12/12 09:42:49;;;;;;;;;13.75;13.50;;;;;10.69;100.00;101687.63;5054928;28;45235;-73
2021/12/12 09:45:36;;;;;;;;;18.75;14.50;;;;;10.74;100.00;101687.53;5054125;28;47460;-68
2021/12/12 09:51:14;;;;;;;;;12.50;12.00;;;;;10.77;99.98;101687.44;5058228;28;45322;-71
2021/12/12 09:54:13;;;;;;;;;12.75;12.50;;;;;10.85;100.00;101703.03;5058712;28;45390;-68
2021/12/12 09:56:48;;;;;;;;;16.75;13.25;;;;;10.86;100.00;101696.88;5059257;28;45356;-71
2021/12/12 09:59:39;;;;;;;;;15.50;13.25;;;;;10.93;100.00;101699.34;5060867;28;45361;-69
2021/12/12 10:02:14;;;;;;;;;15.00;13.50;;;;;11.01;100.00;101698.28;5059012;28;45432;-69
2021/12/12 10:05:12;;;;;;;;;13.25;12.25;;;;;11.08;100.00;101694.59;5058098;28;45477;-71
2021/12/12 10:08:15;;;;;;;;;15.50;13.50;;;;;11.16;99.63;101692.66;5057701;28;45956;-71
2021/12/12 10:11:01;;;;;;;;;19.50;16.50;;;;;11.21;99.48;101701.31;5057249;28;45436;-72
2021/12/12 10:13:47;;;;;;;;;14.25;11.00;;;;;11.30;99.66;101701.97;5058157;27;45434;-72
2021/12/12 10:16:31;;;;;;;;;18.75;15.25;;;;;11.36;99.05;101710.59;5077699;27;45537;-71
2021/12/12 10:19:03;;;;;;;;;14.50;12.00;;;;;11.39;98.84;101697.34;5056756;28;45670;-71
2021/12/12 10:21:40;;;;;;;;;17.50;14.25;;;;;11.49;98.65;101703.22;5056576;28;45290;-72
2021/12/12 10:24:37;;;;;;;;;17.25;15.50;;;;;11.61;98.35;101699.41;5057500;28;45303;-69
2021/12/12 10:27:28;;;;;;;;;15.75;15.75;;;;;11.69;98.00;101699.22;5058402;28;45330;-71
2021/12/12 10:30:08;;;;;;;;;17.75;14.75;;;;;11.75;97.73;101704.34;5062019;28;46962;-72
2021/12/12 10:32:47;;;;;;;;;19.25;17.75;;;;;11.78;97.35;101701.59;5058613;28;45407;-70
2021/12/12 10:35:29;;;;;;;;;15.25;15.25;;;;;11.79;97.22;101703.34;5071831;28;45468;-71
2021/12/12 10:38:04;;;;;;;;;12.50;11.00;;;;;11.82;96.98;101700.63;5077128;28;45380;-69
2021/12/12 10:40:45;;;;;;;;;15.00;12.75;;;;;11.82;96.77;101702.38;5074530;27;46191;-70
2021/12/12 10:43:13;;;;;;;;;14.75;14.50;;;;;11.80;96.28;101710.34;5097101;27;45201;-71
2021/12/12 10:45:49;;;;;;;;;15.50;13.75;;;;;11.64;96.41;101688.78;5066905;27;45336;-72
2021/12/12 10:48:20;;;;;;;;;18.00;13.75;;;;;11.74;96.12;101702.59;5056818;28;45422;-72
2021/12/12 10:50:57;;;;;;;;;21.00;17.00;;;;;11.77;96.57;101701.63;5056873;28;45376;-68
2021/12/12 10:53:35;;;;;;;;;13.50;13.50;;;;;11.74;96.55;101697.31;5056490;28;45467;-70
2021/12/12 10:56:16;;;;;;;;;18.75;16.50;;;;;11.84;96.75;101704.06;5056577;28;45373;-71
2021/12/12 10:58:46;;;;;;;;;16.75;16.00;;;;;11.90;96.22;101708.28;5056771;28;45375;-70
2021/12/12 11:01:36;;;;;;;;;14.00;14.00;;;;;11.93;96.18;101702.94;5056549;28;46344;-70
2021/12/12 11:04:15;;;;;;;;;17.00;15.75;;;;;11.98;95.54;101702.81;5074184;27;45423;-70
2021/12/12 11:06:51;;;;;;;;;18.00;15.50;;;;;12.02;96.02;101693.94;5059536;27;45432;-72
2021/12/12 11:10:01;;;;;;;;;20.75;17.00;;;;;12.08;95.54;101700.81;5074852;28;45520;-70
2021/12/12 11:12:45;;;;;;;;;22.75;20.25;;;;;12.17;95.20;101699.69;5067453;28;46266;-71
2021/12/12 11:15:27;;;;;;;;;17.25;14.50;;;;;12.18;94.87;101699.63;5079157;27;45335;-71
2021/12/12 11:17:59;;;;;;;;;17.00;14.00;;;;;12.22;94.41;101701.31;5079222;27;45225;-72
2021/12/12 11:20:31;;;;;;;;;21.00;17.50;;;;;12.16;93.99;101706.72;5079753;28;45472;-71
2021/12/12 11:23:02;;;;;;;;;19.00;19.00;;;;;12.13;94.55;101705.06;5078075;27;46029;-71
2021/12/12 11:25:58;;;;;;;;;31.25;27.25;;;;;12.13;94.29;101705.06;5078126;27;45220;-70
2021/12/12 11:28:36;;;;;;;;;25.75;21.25;;;;;12.11;94.55;101711.28;5071815;27;45330;-73
2021/12/12 11:31:19;;;;;;;;;21.25;21.00;;;;;12.08;94.33;101706.97;5077149;27;45394;-74
2021/12/12 11:33:53;;;;;;;;;21.25;19.75;;;;;12.04;94.02;101715.88;5090107;27;47138;-72
2021/12/12 11:36:25;;;;;;;;;22.50;20.50;;;;;11.97;94.20;101709.00;5096924;27;45257;-71
2021/12/12 11:39:13;;;;;;;;;23.50;20.25;;;;;11.94;94.28;101717.00;5097265;27;45378;-70
2021/12/12 11:41:42;;;;;;;;;17.25;17.25;;;;;11.94;94.73;101706.47;5059791;27;45337;-73
2021/12/12 11:44:27;;;;;;;;;23.25;21.75;;;;;11.98;94.82;101708.94;5065307;28;46278;-69
2021/12/12 11:47:29;;;;;;;;;20.00;18.50;;;;;12.10;94.98;101704.25;5073566;27;45575;-70
2021/12/12 11:50:12;;;;;;;;;24.50;21.25;;;;;12.16;94.69;101703.25;5076325;28;45154;-70
2021/12/12 11:52:53;;;;;;;;;21.50;16.50;;;;;12.26;94.74;101699.41;5067868;27;45386;-70
2021/12/12 11:55:32;;;;;;;;;20.25;17.00;;;;;12.31;94.71;101705.44;5070791;27;47130;-70